Time;durP1;ratioP1;P1;durP2;ratioP2;P2;SDS_P1;SDS_P2;PMS_P1;PMS_P2;Temp;Humidity;BMP_temperature;BMP_pressure;BME280_temperature;BME280_humidity;BME280_pressure;Samples;Min_cycle;Max_cycle;Signal;HPM_P1;HPM_P2
2021/09/03 00:02:49;;;;;;;3.83;3.45;;;;;;;11.97;90.82;96743.09;5208431;56;20127;-74
2021/09/03 00:07:51;;;;;;;5.47;3.85;;;;;;;11.75;90.68;96745.25;5212001;56;20152;-73
2021/09/03 00:12:54;;;;;;;5.38;3.85;;;;;;;11.67;91.42;96744.00;5209952;56;20141;-73
2021/09/03 00:17:56;;;;;;;6.25;4.55;;;;;;;11.57;91.39;96734.13;5209133;56;20149;-75
2021/09/03 00:22:59;;;;;;;4.75;4.10;;;;;;;11.54;91.44;96735.78;5206901;56;20145;-73
2021/09/03 00:28:01;;;;;;;7.18;4.07;;;;;;;11.47;92.43;96727.78;5205248;57;20324;-73
2021/09/03 00:33:03;;;;;;;5.35;4.28;;;;;;;11.56;92.03;96716.72;5208106;56;20114;-74
2021/09/03 00:38:06;;;;;;;8.27;4.35;;;;;;;11.58;94.38;96719.06;5208928;57;20203;-74
2021/09/03 00:43:09;;;;;;;8.50;5.55;;;;;;;11.79;94.59;96718.94;5209273;56;20122;-74
2021/09/03 00:48:12;;;;;;;6.13;4.85;;;;;;;11.90;94.61;96721.25;5208846;56;20114;-73
2021/09/03 00:53:15;;;;;;;10.35;4.90;;;;;;;11.97;94.22;96707.09;5207304;56;20123;-74
2021/09/03 00:58:21;;;;;;;9.05;5.35;;;;;;;11.91;94.18;96714.50;5211010;57;20114;-75
2021/09/03 01:03:23;;;;;;;6.93;5.03;;;;;;;11.84;93.28;96715.56;5209634;57;20600;-74
2021/09/03 01:08:26;;;;;;;5.10;4.40;;;;;;;11.83;92.13;96708.47;5203326;57;20136;-72
2021/09/03 01:13:28;;;;;;;6.35;5.20;;;;;;;11.85;90.66;96706.03;5202933;56;20570;-74
2021/09/03 01:18:30;;;;;;;5.18;4.22;;;;;;;11.57;90.90;96709.97;5213098;57;20118;-75
2021/09/03 01:23:33;;;;;;;7.22;4.15;;;;;;;11.43;90.49;96708.56;5225015;56;20123;-74
2021/09/03 01:28:35;;;;;;;7.72;4.70;;;;;;;11.28;91.31;96707.63;5221458;56;20098;-74
2021/09/03 01:33:38;;;;;;;4.20;3.80;;;;;;;11.27;91.75;96703.31;5220950;56;20692;-74
2021/09/03 01:38:42;;;;;;;8.70;4.65;;;;;;;11.16;91.56;96704.97;5225227;56;20114;-73
2021/09/03 01:43:44;;;;;;;6.10;4.63;;;;;;;11.07;92.07;96691.88;5210483;56;20127;-75
2021/09/03 01:48:47;;;;;;;5.88;4.53;;;;;;;11.01;92.67;96704.78;5203762;56;20593;-75
2021/09/03 01:53:49;;;;;;;6.32;4.20;;;;;;;11.04;92.57;96695.56;5204622;56;20129;-75
2021/09/03 01:58:52;;;;;;;5.25;4.22;;;;;;;11.01;92.45;96699.25;5204781;57;20106;-74
2021/09/03 02:03:54;;;;;;;4.45;3.60;;;;;;;11.01;92.29;96699.25;5205432;56;20594;-73
2021/09/03 02:08:56;;;;;;;4.18;3.10;;;;;;;11.10;91.81;96693.75;5206330;56;20136;-73
2021/09/03 02:13:59;;;;;;;3.13;2.83;;;;;;;10.87;91.85;96693.50;5204191;56;20188;-72
2021/09/03 02:19:01;;;;;;;4.68;3.83;;;;;;;10.76;91.97;96691.91;5201518;57;20123;-73
2021/09/03 02:24:05;;;;;;;3.47;3.15;;;;;;;10.79;91.43;96681.94;5201285;56;20132;-74
2021/09/03 02:29:07;;;;;;;6.75;3.10;;;;;;;10.66;91.56;96689.56;5200603;56;20123;-73
2021/09/03 02:34:10;;;;;;;5.22;3.58;;;;;;;10.63;91.72;96688.47;5203021;56;20169;-74
2021/09/03 02:39:12;;;;;;;5.82;3.47;;;;;;;10.68;91.15;96687.13;5205653;56;20642;-72
2021/09/03 02:44:14;;;;;;;4.30;3.15;;;;;;;10.50;91.83;96692.56;5204617;56;20224;-74
2021/09/03 02:49:17;;;;;;;3.30;3.00;;;;;;;10.42;92.31;96689.31;5204855;56;20119;-75
2021/09/03 02:54:19;;;;;;;4.53;3.20;;;;;;;10.34;92.01;96687.25;5204639;57;20123;-73
2021/09/03 02:59:22;;;;;;;3.30;3.05;;;;;;;10.25;91.91;96674.16;5203848;56;20176;-71
2021/09/03 03:04:24;;;;;;;4.93;3.47;;;;;;;10.23;92.15;96679.34;5203191;57;20651;-74
2021/09/03 03:09:26;;;;;;;5.80;4.30;;;;;;;10.28;92.54;96667.72;5204028;56;20313;-74
2021/09/03 03:14:32;;;;;;;5.53;3.50;;;;;;;10.31;92.10;96677.09;5204865;57;21025;-76
2021/09/03 03:19:35;;;;;;;4.20;3.72;;;;;;;10.16;91.76;96674.09;5205079;56;20128;-75
2021/09/03 03:24:37;;;;;;;5.28;4.07;;;;;;;10.11;91.44;96660.88;5205128;57;20127;-75
2021/09/03 03:29:40;;;;;;;4.32;3.80;;;;;;;10.15;91.91;96669.03;5204810;56;20666;-75
2021/09/03 03:34:42;;;;;;;4.85;3.50;;;;;;;10.01;91.90;96660.03;5204792;56;20670;-75
2021/09/03 03:39:45;;;;;;;4.03;3.40;;;;;;;10.14;92.11;96659.19;5203396;56;20141;-74
2021/09/03 03:44:47;;;;;;;3.83;3.22;;;;;;;10.04;91.96;96653.59;5204357;57;20137;-77
2021/09/03 03:49:50;;;;;;;4.68;3.38;;;;;;;10.01;92.15;96646.22;5204517;56;20132;-74
2021/09/03 03:54:52;;;;;;;3.58;3.28;;;;;;;9.97;92.29;96650.34;5204959;56;20127;-74
2021/09/03 03:59:54;;;;;;;4.78;3.47;;;;;;;10.06;91.86;96645.63;5204780;56;20226;-74
2021/09/03 04:04:57;;;;;;;4.47;3.60;;;;;;;9.99;92.25;96647.88;5203707;56;20606;-74
2021/09/03 04:09:59;;;;;;;5.10;3.80;;;;;;;9.97;92.55;96655.84;5203181;56;20916;-74
2021/09/03 04:15:02;;;;;;;5.53;3.53;;;;;;;10.06;91.88;96648.38;5204186;56;20119;-74
2021/09/03 04:20:06;;;;;;;3.40;2.72;;;;;;;9.92;92.06;96664.72;5204472;56;20679;-75
2021/09/03 04:25:09;;;;;;;5.00;2.67;;;;;;;9.83;91.44;96657.13;5204402;56;20699;-74
2021/09/03 04:30:12;;;;;;;5.57;3.03;;;;;;;9.72;92.21;96656.75;5210387;56;20105;-75
2021/09/03 04:35:14;;;;;;;2.80;2.60;;;;;;;9.69;91.91;96659.63;5204308;56;20118;-74
2021/09/03 04:40:19;;;;;;;7.40;3.08;;;;;;;9.82;91.94;96660.31;5202546;56;20128;-74
2021/09/03 04:45:21;;;;;;;7.72;3.15;;;;;;;9.87;91.67;96657.78;5206363;56;20127;-75
2021/09/03 04:50:24;;;;;;;4.32;3.58;;;;;;;9.80;91.35;96658.03;5210914;56;20137;-74
2021/09/03 04:55:26;;;;;;;4.75;3.88;;;;;;;9.85;91.54;96659.44;5208955;56;20110;-74
2021/09/03 05:00:29;;;;;;;5.30;3.88;;;;;;;9.95;91.62;96653.53;5207727;56;20182;-74
2021/09/03 05:05:31;;;;;;;4.40;3.72;;;;;;;9.88;91.74;96651.03;5205856;57;20127;-75
2021/09/03 05:10:33;;;;;;;4.85;3.90;;;;;;;10.04;91.55;96650.81;5204892;56;20123;-74
2021/09/03 05:15:39;;;;;;;4.45;3.70;;;;;;;10.24;91.29;96649.75;5203917;56;20127;-75
2021/09/03 05:20:42;;;;;;;5.50;4.03;;;;;;;10.28;91.84;96653.16;5202654;56;20176;-75
2021/09/03 05:25:44;;;;;;;4.80;4.07;;;;;;;10.58;91.34;96652.38;5205108;56;20320;-75
2021/09/03 05:30:47;;;;;;;4.13;3.72;;;;;;;10.55;90.82;96651.28;5205074;56;20128;-73
2021/09/03 05:35:49;;;;;;;5.82;4.07;;;;;;;10.71;91.27;96653.06;5203516;57;20137;-75
2021/09/03 05:40:51;;;;;;;5.63;3.95;;;;;;;10.89;90.84;96657.88;5212598;56;20592;-74
2021/09/03 05:45:54;;;;;;;5.00;4.28;;;;;;;10.95;91.11;96650.50;5203699;56;20199;-75
2021/09/03 05:50:56;;;;;;;6.15;4.68;;;;;;;11.24;90.59;96653.66;5202926;56;20242;-76
2021/09/03 05:55:59;;;;;;;5.30;4.72;;;;;;;11.44;91.00;96659.53;5210920;56;20218;-75
2021/09/03 06:01:01;;;;;;;8.18;5.10;;;;;;;11.67;91.16;96656.19;5202913;56;20149;-75
2021/09/03 06:06:04;;;;;;;5.80;4.95;;;;;;;11.95;92.41;96659.72;5202095;57;20137;-75
2021/09/03 06:11:06;;;;;;;9.50;6.80;;;;;;;12.23;94.31;96664.75;5205539;56;20123;-74
2021/09/03 06:16:08;;;;;;;10.05;6.80;;;;;;;12.55;93.86;96665.31;5205687;56;20588;-75
2021/09/03 06:21:11;;;;;;;7.55;6.60;;;;;;;12.76;93.77;96667.84;5203971;56;20305;-72
2021/09/03 06:26:14;;;;;;;9.85;7.22;;;;;;;13.01;93.39;96661.09;5206092;56;20124;-75
2021/09/03 06:31:16;;;;;;;15.52;8.05;;;;;;;13.25;92.09;96664.69;5204439;56;20218;-74
2021/09/03 06:36:19;;;;;;;8.93;6.93;;;;;;;13.42;92.49;96653.97;5209443;57;20132;-75
2021/09/03 06:41:21;;;;;;;10.85;7.38;;;;;;;13.69;91.03;96659.31;5210258;56;20127;-74
2021/09/03 06:46:24;;;;;;;15.88;7.53;;;;;;;13.89;89.91;96662.25;5208801;56;20132;-73
2021/09/03 06:51:26;;;;;;;8.70;7.18;;;;;;;13.99;90.91;96658.16;5206601;56;20110;-74
2021/09/03 06:56:28;;;;;;;10.07;7.38;;;;;;;14.18;89.49;96662.28;5214069;56;20135;-74
2021/09/03 07:01:31;;;;;;;9.15;7.15;;;;;;;14.60;88.37;96664.84;5222633;56;20118;-74
2021/09/03 07:06:34;;;;;;;11.27;6.97;;;;;;;14.85;87.28;96666.25;5219571;56;20110;-75
2021/09/03 07:11:36;;;;;;;10.30;7.47;;;;;;;14.89;87.28;96658.47;5223012;56;20111;-75
2021/09/03 07:16:39;;;;;;;9.45;6.72;;;;;;;15.29;86.62;96657.78;5223020;57;20823;-75
2021/09/03 07:21:42;;;;;;;9.10;7.03;;;;;;;15.34;84.93;96666.22;5211496;56;20730;-74
2021/09/03 07:26:45;;;;;;;11.30;7.07;;;;;;;15.57;84.76;96670.88;5209015;56;20340;-74
2021/09/03 07:31:47;;;;;;;8.20;6.50;;;;;;;15.86;84.42;96666.38;5214030;56;20127;-74
2021/09/03 07:36:50;;;;;;;10.45;6.80;;;;;;;15.99;83.85;96653.63;5215490;56;20118;-76
2021/09/03 07:41:52;;;;;;;8.60;6.55;;;;;;;16.13;82.43;96663.16;5203620;56;20133;-73
2021/09/03 07:46:54;;;;;;;8.73;6.32;;;;;;;16.41;82.34;96656.63;5205658;57;20128;-74
2021/09/03 07:51:57;;;;;;;7.85;6.38;;;;;;;16.74;80.34;96653.38;5207221;56;20131;-75
2021/09/03 07:56:59;;;;;;;8.95;6.55;;;;;;;16.49;80.50;96668.09;5203637;57;20141;-74
2021/09/03 08:02:05;;;;;;;7.55;5.88;;;;;;;16.95;78.26;96660.41;5196116;56;20638;-73
2021/09/03 08:07:07;;;;;;;7.13;5.80;;;;;;;17.24;79.12;96653.72;5204959;57;20118;-74
2021/09/03 08:12:11;;;;;;;8.55;6.53;;;;;;;17.46;79.05;96658.69;5204980;56;20175;-73
2021/09/03 08:17:13;;;;;;;9.32;6.50;;;;;;;17.64;76.09;96669.50;5204135;56;20141;-75
2021/09/03 08:22:16;;;;;;;11.40;5.82;;;;;;;17.87;76.57;96671.88;5203913;56;20332;-75
2021/09/03 08:27:18;;;;;;;8.93;6.03;;;;;;;18.11;73.82;96668.66;5200814;56;20207;-73
2021/09/03 08:32:20;;;;;;;7.75;5.70;;;;;;;18.29;71.99;96659.81;5202490;56;20149;-73
2021/09/03 08:37:23;;;;;;;8.77;6.03;;;;;;;19.53;68.90;96662.13;5204153;57;20136;-76
2021/09/03 08:42:28;;;;;;;7.07;5.90;;;;;;;19.94;68.63;96671.44;5205505;56;20222;-74
2021/09/03 08:47:34;;;;;;;8.10;5.50;;;;;;;20.71;64.48;96671.00;5203251;56;20123;-76
2021/09/03 08:58:07;;;;;;;5.85;5.15;;;;;;;21.03;63.04;96670.53;5290572;45;20146;-74
2021/09/03 09:09:03;;;;;;;6.03;5.30;;;;;;;22.61;56.07;96679.81;5994085;45;20179;-75
2021/09/03 09:30:42;;;;;;;9.07;5.30;;;;;;;22.12;57.34;96658.69;6126029;46;20191;-75
2021/09/03 09:35:47;;;;;;;4.78;4.18;;;;;;;23.02;57.59;96650.50;5248100;56;20177;-75
2021/09/03 09:40:54;;;;;;;9.55;5.30;;;;;;;23.61;54.45;96652.03;5243980;56;20219;-75
2021/09/03 09:46:20;;;;;;;5.30;4.80;;;;;;;23.72;53.60;96643.34;5246550;56;20260;-74
2021/09/03 09:51:24;;;;;;;5.35;4.85;;;;;;;23.10;54.53;96646.50;5246687;56;20248;-74
2021/09/03 09:56:29;;;;;;;7.47;5.60;;;;;;;23.40;51.61;96637.81;5246165;56;20189;-75
2021/09/03 10:01:34;;;;;;;10.45;5.68;;;;;;;24.80;52.03;96629.50;5245622;56;20117;-75
2021/09/03 10:06:40;;;;;;;6.97;6.10;;;;;;;23.60;52.20;96625.13;5246310;56;20135;-74
2021/09/03 10:11:45;;;;;;;6.45;5.80;;;;;;;24.60;52.24;96627.38;5245861;56;20126;-75
2021/09/03 10:16:49;;;;;;;9.10;5.50;;;;;;;24.98;50.38;96627.00;5246296;56;20117;-75
2021/09/03 10:21:55;;;;;;;6.60;5.55;;;;;;;24.80;49.07;96623.84;5244511;56;20683;-73
2021/09/03 10:26:59;;;;;;;6.25;5.10;;;;;;;25.32;48.96;96631.28;5246504;56;20771;-74
2021/09/03 10:37:16;;;;;;;6.93;6.22;;;;;;;25.26;50.66;96615.75;5246968;56;20126;-74
2021/09/03 10:42:37;;;;;;;8.60;5.65;;;;;;;24.68;52.77;96610.47;5242629;56;20117;-74
2021/09/03 10:47:40;;;;;;;6.95;5.82;;;;;;;24.67;50.26;96608.97;5246856;56;20674;-74
2021/09/03 10:53:04;;;;;;;6.50;5.90;;;;;;;25.49;48.54;96611.81;5237421;56;20701;-72
2021/09/03 10:58:07;;;;;;;9.63;5.88;;;;;;;25.77;47.35;96599.72;5245769;56;20121;-73
2021/09/03 11:03:35;;;;;;;7.18;5.47;;;;;;;25.81;51.17;96602.19;5245816;56;20104;-74
2021/09/03 11:08:42;;;;;;;5.55;5.05;;;;;;;26.48;45.02;96601.75;5246251;56;20147;-75
2021/09/03 11:13:50;;;;;;;5.77;5.07;;;;;;;25.85;47.30;96603.34;5245297;56;20162;-73
2021/09/03 11:19:22;;;;;;;7.95;5.13;;;;;;;26.89;43.71;96597.91;5245832;56;20113;-73
2021/09/03 11:24:35;;;;;;;7.18;4.82;;;;;;;26.47;46.30;96594.56;5245474;56;20313;-73
2021/09/03 11:29:47;;;;;;;4.70;4.15;;;;;;;26.82;43.34;96593.69;5246837;56;20126;-73
2021/09/03 11:34:53;;;;;;;6.18;4.53;;;;;;;26.67;43.85;96595.72;5247683;56;20175;-73
2021/09/03 11:40:06;;;;;;;5.43;4.60;;;;;;;26.75;43.64;96591.63;5247540;56;20747;-73
2021/09/03 11:45:18;;;;;;;5.13;4.25;;;;;;;26.70;44.88;96586.09;5245855;56;20130;-73
2021/09/03 11:50:35;;;;;;;3.92;3.63;;;;;;;26.78;45.30;96587.66;5249069;56;20127;-73
2021/09/03 11:55:40;;;;;;;6.30;4.38;;;;;;;25.52;44.99;96588.06;5247180;56;20121;-74
2021/09/03 12:00:50;;;;;;;6.32;4.20;;;;;;;26.45;45.39;96580.19;5246367;56;20117;-72
2021/09/03 12:05:55;;;;;;;5.05;4.15;;;;;;;25.78;44.67;96577.81;5245829;56;20139;-73
2021/09/03 12:11:02;;;;;;;4.32;3.80;;;;;;;25.82;45.20;96578.97;5247846;56;20122;-74
2021/09/03 12:16:15;;;;;;;11.85;4.50;;;;;;;25.92;45.60;96573.53;5248760;56;20135;-74
2021/09/03 12:21:21;;;;;;;4.05;3.67;;;;;;;25.67;43.45;96575.31;5247840;56;20121;-73
2021/09/03 12:26:35;;;;;;;4.57;3.53;;;;;;;26.53;44.07;96563.22;5249328;56;20126;-75
2021/09/03 12:31:38;;;;;;;6.45;4.10;;;;;;;25.94;43.80;96557.50;5248845;56;20091;-75
2021/09/03 12:36:42;;;;;;;4.53;4.07;;;;;;;25.75;40.94;96547.78;5246626;56;20112;-77
2021/09/03 12:41:44;;;;;;;4.32;3.50;;;;;;;25.86;43.37;96538.97;5235458;56;20711;-75
2021/09/03 12:46:50;;;;;;;4.53;4.07;;;;;;;26.22;44.07;96542.53;5241724;56;20166;-74
2021/09/03 12:51:58;;;;;;;3.97;3.58;;;;;;;26.20;40.46;96528.19;5244363;56;20222;-76
2021/09/03 12:57:01;;;;;;;4.45;3.88;;;;;;;25.59;40.82;96522.25;5245194;56;20608;-74
2021/09/03 13:02:06;;;;;;;6.30;4.18;;;;;;;25.58;42.59;96520.72;5238721;56;20126;-75
2021/09/03 13:07:09;;;;;;;4.63;4.05;;;;;;;25.68;41.71;96515.31;5244702;56;20112;-75
2021/09/03 13:12:14;;;;;;;4.50;3.60;;;;;;;26.51;44.64;96515.56;5241743;56;20190;-75
2021/09/03 13:17:17;;;;;;;6.85;3.65;;;;;;;26.88;42.53;96499.94;5244566;56;20113;-74
2021/09/03 13:22:19;;;;;;;6.25;3.65;;;;;;;26.54;40.86;96494.63;5247489;56;20116;-74
2021/09/03 13:27:22;;;;;;;5.57;3.58;;;;;;;27.23;42.15;96484.03;5246039;56;20121;-72
2021/09/03 13:32:24;;;;;;;4.20;3.80;;;;;;;26.70;42.19;96487.63;5243694;56;20979;-72
2021/09/03 13:37:26;;;;;;;5.38;3.72;;;;;;;26.98;42.13;96487.44;5242788;56;20861;-74
2021/09/03 13:42:30;;;;;;;3.72;3.42;;;;;;;27.05;41.40;96468.16;5245813;56;20222;-73
2021/09/03 13:47:33;;;;;;;3.78;3.47;;;;;;;26.38;39.05;96469.66;5246081;56;20126;-76
2021/09/03 13:52:35;;;;;;;4.85;3.13;;;;;;;26.67;38.59;96473.81;5249196;56;20131;-75
2021/09/03 13:57:38;;;;;;;3.50;3.20;;;;;;;27.37;36.91;96459.78;5252645;46;20143;-77
2021/09/03 14:02:41;;;;;;;3.50;3.20;;;;;;;26.79;40.91;96461.56;5244260;56;20130;-76
2021/09/03 14:07:44;;;;;;;4.03;3.55;;;;;;;26.97;39.88;96463.25;5239548;56;20125;-76
2021/09/03 14:12:46;;;;;;;4.35;3.22;;;;;;;26.54;39.93;96465.50;5243317;56;20649;-76
2021/09/03 14:17:48;;;;;;;3.92;3.20;;;;;;;26.78;37.32;96448.72;5224376;56;20135;-76
2021/09/03 14:22:52;;;;;;;3.83;3.42;;;;;;;27.25;37.92;96439.53;5237889;56;20125;-76
2021/09/03 14:27:54;;;;;;;3.40;3.10;;;;;;;26.96;36.41;96433.38;5238313;56;20126;-76
2021/09/03 14:32:57;;;;;;;3.45;3.15;;;;;;;26.54;36.59;96437.16;5237359;56;20121;-76
2021/09/03 14:37:59;;;;;;;4.57;3.22;;;;;;;26.80;37.17;96426.22;5239548;56;20135;-74
2021/09/03 14:43:02;;;;;;;3.85;3.30;;;;;;;26.16;39.03;96420.16;5243923;56;20125;-76
2021/09/03 14:48:05;;;;;;;3.83;3.10;;;;;;;25.95;38.85;96425.94;5243689;56;20126;-74
2021/09/03 14:53:07;;;;;;;3.50;3.00;;;;;;;25.96;37.24;96415.38;5243584;56;20135;-76
2021/09/03 14:58:09;;;;;;;3.63;2.97;;;;;;;25.45;38.89;96413.31;5242407;56;20112;-76
2021/09/03 15:03:12;;;;;;;4.63;3.50;;;;;;;25.15;40.21;96403.94;5242572;56;20099;-75
2021/09/03 15:08:14;;;;;;;4.60;3.50;;;;;;;25.10;39.87;96407.66;5237746;56;20130;-76
2021/09/03 15:13:16;;;;;;;3.95;3.58;;;;;;;24.94;41.34;96395.50;5242903;56;20130;-75
2021/09/03 15:18:19;;;;;;;4.40;3.10;;;;;;;24.70;40.27;96393.06;5241724;56;20131;-76
2021/09/03 15:23:22;;;;;;;10.18;3.20;;;;;;;24.64;40.72;96396.06;5243507;56;20134;-78
2021/09/03 15:28:24;;;;;;;4.13;3.28;;;;;;;24.19;41.33;96390.06;5242227;56;20134;-78
2021/09/03 15:33:26;;;;;;;3.83;3.17;;;;;;;23.96;40.55;96392.63;5243016;56;20130;-75
2021/09/03 15:38:29;;;;;;;3.90;3.35;;;;;;;23.80;42.36;96385.31;5243662;56;20121;-75
2021/09/03 15:43:32;;;;;;;13.88;4.13;;;;;;;23.67;43.13;96376.91;5243358;56;20662;-76
2021/09/03 15:48:37;;;;;;;3.35;2.85;;;;;;;23.42;42.54;96381.34;5243832;56;20127;-77
2021/09/03 15:53:39;;;;;;;3.58;3.22;;;;;;;23.25;42.74;96366.81;5243815;56;20130;-76
2021/09/03 15:58:41;;;;;;;3.92;3.40;;;;;;;23.15;44.99;96365.78;5240579;56;20165;-76
2021/09/03 16:03:44;;;;;;;3.38;3.00;;;;;;;22.97;45.39;96363.84;5235351;56;20121;-75
2021/09/03 16:08:46;;;;;;;3.50;3.20;;;;;;;22.73;46.58;96362.78;5242653;56;20135;-75
2021/09/03 16:13:49;;;;;;;4.47;3.60;;;;;;;22.66;47.89;96371.13;5242341;56;20117;-76
2021/09/03 16:18:51;;;;;;;4.13;3.60;;;;;;;22.53;47.42;96365.44;5243549;56;20582;-76
2021/09/03 16:23:55;;;;;;;3.90;3.50;;;;;;;22.52;48.17;96361.13;5243507;56;20158;-76
2021/09/03 16:28:57;;;;;;;6.20;3.65;;;;;;;22.23;49.05;96350.94;5242246;56;20122;-76
2021/09/03 16:34:08;;;;;;;5.88;3.35;;;;;;;22.18;49.59;96341.28;5241903;56;20139;-76
2021/09/03 16:39:10;;;;;;;6.07;3.70;;;;;;;22.09;50.28;96355.78;5229546;56;20130;-77
2021/09/03 16:44:13;;;;;;;3.50;3.17;;;;;;;21.86;51.22;96346.19;5236199;56;20125;-77
2021/09/03 16:49:16;;;;;;;3.83;3.40;;;;;;;21.77;51.90;96347.34;5230176;56;20145;-76
2021/09/03 16:54:18;;;;;;;3.60;3.25;;;;;;;21.59;53.03;96341.75;5229504;56;20122;-76
2021/09/03 16:59:20;;;;;;;3.47;3.05;;;;;;;21.44;53.72;96342.22;5231916;56;20134;-76
2021/09/03 17:04:23;;;;;;;4.60;3.33;;;;;;;21.22;53.99;96343.31;5242115;56;20117;-77
2021/09/03 17:09:28;;;;;;;3.88;3.30;;;;;;;21.09;56.03;96332.03;5242990;56;20117;-75
2021/09/03 17:14:31;;;;;;;4.45;3.65;;;;;;;20.80;56.83;96344.13;5242053;56;20113;-76
2021/09/03 17:19:33;;;;;;;4.15;3.63;;;;;;;20.39;59.66;96338.75;5241930;56;20117;-75
2021/09/03 17:24:35;;;;;;;4.75;3.65;;;;;;;19.98;61.95;96338.13;5235067;56;20571;-76
2021/09/03 17:29:38;;;;;;;3.45;3.08;;;;;;;19.69;62.70;96334.03;5239166;56;20125;-75
2021/09/03 17:34:40;;;;;;;5.65;3.72;;;;;;;19.42;67.87;96332.22;5239642;56;20599;-76
2021/09/03 17:39:42;;;;;;;3.55;3.17;;;;;;;19.11;70.61;96329.88;5240041;56;20126;-77
2021/09/03 17:44:45;;;;;;;6.03;4.00;;;;;;;18.92;73.30;96326.91;5240618;56;20117;-77
2021/09/03 17:49:49;;;;;;;4.30;3.22;;;;;;;18.65;74.85;96330.59;5239286;56;20160;-75
2021/09/03 17:54:51;;;;;;;4.22;3.63;;;;;;;18.46;76.47;96341.63;5226231;56;20129;-76
2021/09/03 17:59:54;;;;;;;5.10;3.28;;;;;;;18.41;76.38;96333.97;5235345;56;20205;-75
2021/09/03 18:04:56;;;;;;;4.15;3.40;;;;;;;18.31;76.23;96331.97;5245712;56;20121;-75
2021/09/03 18:32:35;;;;;;;5.13;3.70;;;;;;;16.80;82.17;96336.00;5249034;56;20705;-78
2021/09/03 18:37:37;;;;;;;4.03;3.55;;;;;;;16.82;82.76;96341.88;5242423;56;20135;-75
2021/09/03 18:42:40;;;;;;;3.55;3.25;;;;;;;16.85;82.56;96346.44;5234579;56;20656;-76
2021/09/03 18:47:42;;;;;;;7.47;3.60;;;;;;;16.62;83.11;96344.84;5239883;56;20135;-76
2021/09/03 18:52:45;;;;;;;3.60;3.25;;;;;;;16.46;83.70;96351.09;5239786;56;20117;-79
2021/09/03 18:57:48;;;;;;;6.53;3.53;;;;;;;16.55;83.62;96355.72;5241036;56;20142;-78
2021/09/03 19:02:50;;;;;;;3.33;3.03;;;;;;;16.27;84.56;96361.91;5231294;56;20121;-77
2021/09/03 19:07:53;;;;;;;4.97;3.80;;;;;;;16.11;85.06;96370.16;5241340;56;20130;-78
2021/09/03 19:12:55;;;;;;;5.22;3.90;;;;;;;16.01;85.19;96366.78;5242578;56;20125;-79
2021/09/03 19:18:05;;;;;;;4.38;3.92;;;;;;;15.87;85.79;96364.94;5240771;56;20117;-79
2021/09/03 19:23:07;;;;;;;5.20;4.30;;;;;;;15.94;85.14;96361.69;5243657;56;20108;-78
2021/09/03 19:28:11;;;;;;;6.03;3.58;;;;;;;15.71;86.38;96371.94;5241013;56;20186;-79
2021/09/03 19:33:14;;;;;;;5.13;3.80;;;;;;;15.53;86.68;96366.72;5241660;56;20130;-78
2021/09/03 19:38:16;;;;;;;5.28;3.53;;;;;;;15.33;87.67;96379.91;5246076;56;20126;-77
2021/09/03 19:43:19;;;;;;;3.80;3.42;;;;;;;15.07;87.34;96375.09;5242120;56;20139;-77
2021/09/03 19:48:21;;;;;;;4.20;3.42;;;;;;;15.01;88.16;96373.53;5242358;56;20135;-79
2021/09/03 19:53:24;;;;;;;5.07;3.92;;;;;;;15.06;87.61;96370.03;5243248;56;20639;-79
2021/09/03 19:58:26;;;;;;;4.47;3.65;;;;;;;15.02;87.92;96377.81;5242722;56;20108;-77
2021/09/03 20:03:28;;;;;;;5.25;3.55;;;;;;;14.88;88.22;96379.44;5242177;56;20657;-78
2021/09/03 20:08:31;;;;;;;4.38;3.50;;;;;;;14.76;88.53;96371.47;5244002;56;20221;-78
2021/09/03 20:13:33;;;;;;;4.20;3.70;;;;;;;14.64;89.32;96369.81;5242024;56;20130;-77
2021/09/03 20:18:36;;;;;;;5.20;3.90;;;;;;;14.52;89.70;96379.28;5236915;56;20135;-79
2021/09/03 20:23:38;;;;;;;4.00;3.55;;;;;;;14.47;89.45;96371.63;5247603;56;20644;-79
2021/09/03 20:28:41;;;;;;;4.80;3.90;;;;;;;14.44;89.25;96367.03;5240362;56;20135;-78
2021/09/03 20:33:43;;;;;;;4.50;3.50;;;;;;;14.43;88.83;96376.63;5240824;56;20134;-77
2021/09/03 20:38:45;;;;;;;5.45;3.80;;;;;;;14.38;89.21;96370.50;5242343;56;20125;-77
2021/09/03 20:43:48;;;;;;;5.70;4.13;;;;;;;14.26;89.86;96374.38;5232716;56;20577;-77
2021/09/03 20:48:50;;;;;;;4.82;3.58;;;;;;;14.20;89.88;96367.22;5241124;56;20574;-77
2021/09/03 20:53:52;;;;;;;4.22;3.63;;;;;;;14.44;89.21;96362.25;5241724;56;20649;-76
2021/09/03 20:58:55;;;;;;;4.47;4.00;;;;;;;14.28;89.03;96368.31;5241486;56;20131;-77
2021/09/03 21:03:57;;;;;;;4.97;4.07;;;;;;;14.13;89.39;96376.72;5232412;56;20139;-77
2021/09/03 21:08:59;;;;;;;4.32;3.92;;;;;;;14.06;89.56;96365.25;5240919;56;20662;-78
2021/09/03 21:14:02;;;;;;;4.78;3.67;;;;;;;14.04;89.86;96378.84;5230602;56;20147;-77
2021/09/03 21:19:04;;;;;;;6.13;3.75;;;;;;;13.83;89.73;96378.03;5236879;56;20130;-77
2021/09/03 21:24:06;;;;;;;5.07;3.83;;;;;;;13.73;90.27;96382.16;5238857;56;20126;-78
2021/09/03 21:29:09;;;;;;;5.35;4.20;;;;;;;13.56;90.72;96384.69;5238491;56;20139;-77
2021/09/03 21:34:12;;;;;;;5.72;4.22;;;;;;;13.52;90.49;96381.31;5239841;56;20121;-79
2021/09/03 21:39:14;;;;;;;5.70;4.35;;;;;;;13.49;90.31;96378.75;5241816;56;20192;-78
2021/09/03 21:44:17;;;;;;;7.15;4.43;;;;;;;13.41;90.73;96381.16;5247148;56;20135;-78
2021/09/03 21:49:19;;;;;;;5.07;4.35;;;;;;;13.49;90.87;96385.09;5247824;56;20912;-78
2021/09/03 21:54:21;;;;;;;5.70;4.07;;;;;;;13.38;90.45;96386.91;5241323;56;20113;-78
2021/09/03 21:59:24;;;;;;;4.82;4.20;;;;;;;13.37;90.65;96382.59;5240052;56;20550;-78
2021/09/03 22:04:26;;;;;;;4.70;4.28;;;;;;;13.29;90.89;96385.00;5240535;56;20586;-78
2021/09/03 22:09:28;;;;;;;7.18;4.28;;;;;;;13.20;90.67;96384.31;5241484;56;20126;-79
2021/09/03 22:14:31;;;;;;;5.60;4.63;;;;;;;13.09;90.64;96389.69;5241173;56;20579;-78
2021/09/03 22:19:33;;;;;;;7.72;5.20;;;;;;;13.08;91.06;96383.34;5238919;56;20126;-77
2021/09/03 22:24:36;;;;;;;5.47;4.38;;;;;;;12.93;91.38;96388.84;5241015;56;20122;-77
2021/09/03 22:29:38;;;;;;;5.43;4.18;;;;;;;12.88;91.13;96383.97;5241173;56;20135;-78
2021/09/03 22:34:40;;;;;;;6.13;4.85;;;;;;;12.84;90.93;96379.84;5242553;56;20126;-79
2021/09/03 22:39:42;;;;;;;6.38;4.72;;;;;;;12.75;91.16;96385.47;5231550;56;20113;-78
2021/09/03 22:44:45;;;;;;;7.40;4.32;;;;;;;12.69;90.86;96384.59;5234045;56;20127;-78
2021/09/03 22:49:47;;;;;;;5.18;4.47;;;;;;;12.65;91.46;96382.00;5244291;56;20143;-78
2021/09/03 22:54:49;;;;;;;6.10;4.72;;;;;;;12.56;91.08;96382.09;5246022;56;20108;-78
2021/09/03 22:59:52;;;;;;;6.28;4.80;;;;;;;12.48;91.61;96374.59;5244679;56;20135;-79
2021/09/03 23:04:54;;;;;;;5.47;4.78;;;;;;;12.44;91.73;96366.47;5245391;56;20117;-78
2021/09/03 23:09:57;;;;;;;8.38;4.88;;;;;;;12.53;92.06;96377.47;5240035;56;20144;-78
2021/09/03 23:14:59;;;;;;;7.07;5.10;;;;;;;12.55;92.07;96375.00;5242560;56;20183;-78
2021/09/03 23:20:03;;;;;;;5.97;4.70;;;;;;;12.48;91.85;96375.38;5242184;56;20144;-79
2021/09/03 23:25:06;;;;;;;6.18;5.03;;;;;;;12.37;91.57;96375.13;5243922;56;20207;-78
2021/09/03 23:30:10;;;;;;;7.07;4.55;;;;;;;12.30;91.79;96366.44;5243025;56;20746;-78
2021/09/03 23:35:12;;;;;;;5.68;4.47;;;;;;;12.23;91.55;96359.97;5243379;56;20135;-78
2021/09/03 23:40:15;;;;;;;7.88;4.97;;;;;;;12.17;91.40;96363.88;5237964;56;20126;-78
2021/09/03 23:45:17;;;;;;;4.90;4.38;;;;;;;12.10;91.62;96359.47;5243065;56;20125;-78
2021/09/03 23:50:19;;;;;;;6.05;4.03;;;;;;;12.04;91.30;96357.81;5243075;56;20130;-78
2021/09/03 23:55:22;;;;;;;5.22;4.72;;;;;;;12.06;92.53;96358.88;5245495;56;20135;-78
